createdAt,value
2022-10-10T00:01:21.358Z,98201.78
2022-10-10T00:03:49.043Z,98206.97
2022-10-10T00:06:16.553Z,98217.19
2022-10-10T00:08:43.909Z,98211.09
2022-10-10T00:11:11.772Z,98204.25
2022-10-10T00:13:38.773Z,98218.25
2022-10-10T00:16:06.235Z,98220.78
2022-10-10T00:18:32.816Z,98204.78
2022-10-10T00:20:59.776Z,98213.50
2022-10-10T00:23:26.444Z,98207.84
2022-10-10T00:25:53.252Z,98201.03
2022-10-10T00:28:20.067Z,98211.97
2022-10-10T00:30:49.157Z,98201.84
2022-10-10T00:33:15.788Z,98202.28
2022-10-10T00:35:42.587Z,98204.94
2022-10-10T00:38:10.299Z,98195.13
2022-10-10T00:40:46.252Z,98196.50
2022-10-10T00:43:16.556Z,98186.22
2022-10-10T00:45:45.123Z,98178.72
2022-10-10T00:48:31.623Z,98176.94
2022-10-10T00:51:03.351Z,98188.13
2022-10-10T00:53:44.489Z,98190.78
2022-10-10T00:56:15.265Z,98191.03
2022-10-10T00:58:44.565Z,98181.41
2022-10-10T01:01:11.385Z,98182.38
2022-10-10T01:03:38.235Z,98176.56
2022-10-10T01:06:06.472Z,98166.06
2022-10-10T01:08:33.683Z,98170.59
2022-10-10T01:11:23.751Z,98144.81
2022-10-10T01:14:07.249Z,98149.94
2022-10-10T01:16:54.189Z,98144.97
2022-10-10T01:19:42.592Z,98137.22
2022-10-10T01:22:36.678Z,98144.75
2022-10-10T01:25:21.860Z,98122.03
2022-10-10T01:27:56.603Z,98108.69
2022-10-10T01:30:26.799Z,98079.72
2022-10-10T01:33:16.341Z,98070.00
2022-10-10T01:35:53.039Z,98050.94
2022-10-10T01:38:23.788Z,98025.69
2022-10-10T01:41:03.208Z,98025.94
2022-10-10T01:43:32.444Z,98000.13
2022-10-10T01:45:59.132Z,97995.47
2022-10-10T01:48:31.933Z,97991.97
2022-10-10T01:51:31.869Z,97973.25
2022-10-10T01:54:41.057Z,97965.03
2022-10-10T01:57:38.564Z,97945.78
2022-10-10T02:00:09.996Z,97957.53
2022-10-10T02:02:50.168Z,97948.50
2022-10-10T02:05:38.731Z,97946.09
2022-10-10T02:08:09.037Z,97948.94
2022-10-10T02:10:45.564Z,97946.53
2022-10-10T02:13:14.030Z,97954.63
2022-10-10T02:15:47.880Z,97958.56
2022-10-10T02:18:19.077Z,97959.59
2022-10-10T02:20:46.335Z,97967.44
2022-10-10T02:23:16.756Z,97972.06
2022-10-10T02:25:51.049Z,97996.13
2022-10-10T02:28:17.768Z,97992.09
2022-10-10T02:30:47.292Z,97993.28
2022-10-10T02:33:23.691Z,98013.16
2022-10-10T02:35:53.028Z,98014.13
2022-10-10T02:38:20.624Z,98019.78
2022-10-10T02:40:51.449Z,98042.84
2022-10-10T02:43:19.276Z,98051.31
2022-10-10T02:45:46.395Z,98074.94
2022-10-10T02:48:12.979Z,98081.09
2022-10-10T02:50:39.579Z,98073.69
2022-10-10T02:53:06.328Z,98106.22
2022-10-10T02:55:32.919Z,98100.91
2022-10-10T02:57:59.944Z,98122.28
2022-10-10T03:00:26.782Z,98120.09
2022-10-10T03:02:53.662Z,98117.44
2022-10-10T03:05:21.329Z,98133.44
2022-10-10T03:07:48.615Z,98130.19
2022-10-10T03:10:15.262Z,98125.88
2022-10-10T03:12:44.039Z,98136.69
2022-10-10T03:15:12.110Z,98125.63
2022-10-10T03:17:39.667Z,98121.69
2022-10-10T03:20:07.304Z,98109.31
2022-10-10T03:22:34.107Z,98100.78
2022-10-10T03:25:00.720Z,98109.91
2022-10-10T03:27:29.336Z,98087.34
2022-10-10T03:29:55.967Z,98096.22
2022-10-10T03:32:24.713Z,98105.94
2022-10-10T03:34:51.368Z,98098.94
2022-10-10T03:37:18.323Z,98110.88
2022-10-10T03:39:44.959Z,98103.94
2022-10-10T03:42:11.572Z,98097.94
2022-10-10T03:44:39.990Z,98101.56
2022-10-10T03:47:06.723Z,98091.69
2022-10-10T03:49:33.327Z,98098.50
2022-10-10T03:52:01.523Z,98088.47
2022-10-10T03:54:28.184Z,98090.91
2022-10-10T03:56:54.796Z,98096.13
2022-10-10T03:59:21.883Z,98093.28
2022-10-10T04:01:48.421Z,98123.97
2022-10-10T04:04:15.196Z,98113.78
2022-10-10T04:06:44.748Z,98130.09
2022-10-10T04:09:11.358Z,98131.78
2022-10-10T04:11:38.695Z,98124.75
2022-10-10T04:14:05.243Z,98147.41
2022-10-10T04:16:31.866Z,98158.75
2022-10-10T04:18:58.602Z,98162.06
2022-10-10T04:21:25.268Z,98176.13
2022-10-10T04:23:51.896Z,98184.28
2022-10-10T04:26:18.485Z,98219.47
2022-10-10T04:28:45.638Z,98213.78
2022-10-10T04:31:12.591Z,98229.66
2022-10-10T04:33:39.191Z,98229.09
2022-10-10T04:36:06.019Z,98218.97
2022-10-10T04:38:32.759Z,98226.22
2022-10-10T04:40:59.415Z,98219.47
2022-10-10T04:43:26.083Z,98210.22
2022-10-10T04:45:52.814Z,98200.38
2022-10-10T04:48:19.428Z,98195.56
2022-10-10T04:50:54.898Z,98195.88
2022-10-10T04:53:21.711Z,98190.47
2022-10-10T04:55:48.273Z,98199.13
2022-10-10T04:58:15.386Z,98196.41
2022-10-10T05:00:42.296Z,98195.16
2022-10-10T05:03:10.337Z,98206.41
2022-10-10T05:05:37.104Z,98211.88
2022-10-10T05:08:05.883Z,98203.44
2022-10-10T05:10:43.633Z,98195.28
2022-10-10T05:13:13.076Z,98194.84
2022-10-10T05:15:40.068Z,98182.28
2022-10-10T05:18:07.053Z,98177.59
2022-10-10T05:20:34.487Z,98176.66
2022-10-10T05:23:01.087Z,98168.31
2022-10-10T05:25:27.808Z,98171.50
2022-10-10T05:27:54.687Z,98165.94
2022-10-10T05:30:21.532Z,98165.56
2022-10-10T05:32:50.389Z,98176.75
2022-10-10T05:35:17.724Z,98170.00
2022-10-10T05:37:44.330Z,98173.06
2022-10-10T05:40:11.541Z,98169.13
2022-10-10T05:42:38.121Z,98171.41
2022-10-10T05:45:07.581Z,98192.00
2022-10-10T05:47:36.083Z,98177.13
2022-10-10T05:50:02.736Z,98188.00
2022-10-10T05:52:29.408Z,98187.81
2022-10-10T05:54:56.004Z,98182.06
2022-10-10T05:57:22.889Z,98182.56
2022-10-10T05:59:51.472Z,98178.97
2022-10-10T06:02:20.214Z,98178.03
2022-10-10T06:04:46.904Z,98175.34
2022-10-10T06:07:14.836Z,98176.50
2022-10-10T06:09:41.393Z,98188.91
2022-10-10T06:12:08.141Z,98183.28
2022-10-10T06:14:34.750Z,98184.53
2022-10-10T06:17:01.429Z,98188.91
2022-10-10T06:19:27.977Z,98181.88
2022-10-10T06:21:54.546Z,98178.66
2022-10-10T06:24:21.369Z,98175.44
2022-10-10T06:26:50.118Z,98170.03
2022-10-10T06:29:16.688Z,98180.56
2022-10-10T06:31:43.306Z,98194.34
2022-10-10T06:34:09.891Z,98190.88
2022-10-10T06:36:36.481Z,98201.06
2022-10-10T06:39:03.353Z,98211.09
2022-10-10T06:41:30.277Z,98199.47
2022-10-10T06:43:57.107Z,98209.84
2022-10-10T06:46:23.707Z,98231.13
2022-10-10T06:48:50.411Z,98227.81
2022-10-10T06:51:17.964Z,98230.03
2022-10-10T06:53:45.872Z,98243.88
2022-10-10T06:56:17.887Z,98247.97
2022-10-10T06:58:46.745Z,98242.13
2022-10-10T07:01:13.505Z,98251.34
2022-10-10T07:03:40.155Z,98270.47
2022-10-10T07:06:09.577Z,98270.72
2022-10-10T07:08:36.636Z,98266.38
2022-10-10T07:11:03.491Z,98266.53
2022-10-10T07:13:32.237Z,98272.19
2022-10-10T07:15:59.296Z,98271.72
2022-10-10T07:18:25.980Z,98270.50
2022-10-10T07:20:59.969Z,98278.84
2022-10-10T07:23:27.839Z,98264.78
2022-10-10T07:26:22.434Z,98264.28
2022-10-10T07:28:49.583Z,98285.84
2022-10-10T07:31:16.215Z,98281.59
2022-10-10T07:33:50.520Z,98290.59
2022-10-10T07:36:18.555Z,98280.81
2022-10-10T07:38:45.242Z,98289.72
2022-10-10T07:41:13.477Z,98283.56
2022-10-10T07:43:40.256Z,98293.72
2022-10-10T07:46:14.129Z,98301.63
2022-10-10T07:48:40.741Z,98307.13
2022-10-10T07:51:07.868Z,98309.50
2022-10-10T07:53:34.604Z,98305.94
2022-10-10T07:56:04.508Z,98308.50
2022-10-10T07:58:31.069Z,98301.09
2022-10-10T08:01:09.730Z,98304.53
2022-10-10T08:03:37.606Z,98303.44
2022-10-10T08:06:10.707Z,98313.19
2022-10-10T08:08:44.916Z,98307.72
2022-10-10T08:11:17.623Z,98299.66
2022-10-10T08:13:46.784Z,98293.78
2022-10-10T08:16:15.185Z,98302.13
2022-10-10T08:18:42.060Z,98304.91
2022-10-10T08:21:11.019Z,98300.81
2022-10-10T08:23:39.823Z,98299.50
2022-10-10T08:26:08.505Z,98308.28
2022-10-10T08:28:38.449Z,98312.69
2022-10-10T08:31:13.290Z,98299.06
2022-10-10T08:33:41.631Z,98289.81
2022-10-10T08:36:11.057Z,98290.81
2022-10-10T08:38:38.122Z,98281.91
2022-10-10T08:41:11.888Z,98292.03
2022-10-10T08:43:50.128Z,98280.34
2022-10-10T08:46:35.328Z,98276.13
2022-10-10T08:49:14.294Z,98309.44
2022-10-10T08:51:45.302Z,98334.78
2022-10-10T08:54:14.988Z,98334.97
2022-10-10T08:56:42.308Z,98356.19
2022-10-10T08:59:21.023Z,98355.94
2022-10-10T09:02:18.720Z,98344.72
2022-10-10T09:04:37.816Z,98360.19
2022-10-10T09:07:26.164Z,98360.38
2022-10-10T09:10:05.225Z,98351.91
2022-10-10T09:12:46.224Z,98339.97
2022-10-10T09:15:29.359Z,98337.59
2022-10-10T09:18:14.632Z,98338.00
2022-10-10T09:20:48.429Z,98365.84
2022-10-10T09:23:17.985Z,98349.47
2022-10-10T09:26:12.762Z,98339.59
2022-10-10T09:28:42.498Z,98356.91
2022-10-10T09:31:17.702Z,98352.00
2022-10-10T09:33:53.176Z,98349.91
2022-10-10T09:36:25.933Z,98362.28
2022-10-10T09:39:12.565Z,98362.66
2022-10-10T09:41:54.087Z,98396.78
2022-10-10T09:44:22.427Z,98387.16
2022-10-10T09:46:49.205Z,98371.97
2022-10-10T09:49:19.650Z,98372.22
2022-10-10T09:51:48.693Z,98357.56
2022-10-10T09:54:19.114Z,98368.47
2022-10-10T09:56:52.001Z,98365.47
2022-10-10T09:59:42.841Z,98381.91
2022-10-10T10:02:24.250Z,98382.50
2022-10-10T10:04:55.564Z,98386.75
2022-10-10T10:07:33.075Z,98404.88
2022-10-10T10:10:02.366Z,98405.75
2022-10-10T10:12:38.160Z,98410.13
2022-10-10T10:15:16.692Z,98415.63
2022-10-10T10:17:43.470Z,98427.56
2022-10-10T10:20:35.919Z,98425.88
2022-10-10T10:23:02.582Z,98412.41
2022-10-10T10:25:36.180Z,98430.00
2022-10-10T10:28:11.977Z,98417.97
2022-10-10T10:30:40.559Z,98417.56
2022-10-10T10:33:20.725Z,98425.19
2022-10-10T10:35:53.885Z,98414.25
2022-10-10T10:38:20.380Z,98410.19
2022-10-10T10:41:10.302Z,98403.22
2022-10-10T10:43:55.050Z,98391.59
2022-10-10T10:46:39.328Z,98390.31
2022-10-10T10:49:11.977Z,98384.16
2022-10-10T10:52:07.540Z,98381.25
2022-10-10T10:55:02.289Z,98376.94
2022-10-10T10:57:40.907Z,98380.66
2022-10-10T11:01:22.308Z,98373.38
2022-10-10T11:05:20.346Z,98367.34
2022-10-10T11:06:32.584Z,98379.69
2022-10-10T11:09:31.068Z,98360.94
2022-10-10T11:12:06.137Z,98365.25
2022-10-10T11:14:53.998Z,98354.84
2022-10-10T11:17:37.779Z,98343.19
2022-10-10T11:20:16.768Z,98336.09
2022-10-10T11:22:57.484Z,98340.16
2022-10-10T11:25:29.860Z,98347.84
2022-10-10T11:28:03.928Z,98335.53
2022-10-10T11:30:40.792Z,98345.81
2022-10-10T11:33:26.676Z,98334.16
2022-10-10T11:36:02.578Z,98350.44
2022-10-10T11:38:29.275Z,98337.19
2022-10-10T11:41:06.000Z,98333.06
2022-10-10T11:43:57.684Z,98334.53
2022-10-10T11:46:56.400Z,98324.22
2022-10-10T11:50:03.182Z,98306.97
2022-10-10T11:52:54.143Z,98304.16
2022-10-10T11:55:26.772Z,98292.53
2022-10-10T11:58:21.442Z,98249.38
2022-10-10T12:00:57.131Z,98226.19
2022-10-10T12:03:26.060Z,98223.63
2022-10-10T12:06:00.944Z,98203.84
2022-10-10T12:08:40.408Z,98177.97
2022-10-10T12:11:17.852Z,98180.03
2022-10-10T12:14:10.700Z,98173.97
2022-10-10T12:16:38.322Z,98169.31
2022-10-10T12:19:09.008Z,98155.84
2022-10-10T12:22:02.512Z,98143.69
2022-10-10T12:24:31.855Z,98149.50
2022-10-10T12:26:58.452Z,98156.47
2022-10-10T12:29:42.014Z,98134.56
2022-10-10T12:32:16.289Z,98139.91
2022-10-10T12:34:51.340Z,98127.78
2022-10-10T12:37:32.112Z,98117.72
2022-10-10T12:40:10.077Z,98114.84
2022-10-10T12:42:50.752Z,98115.56
2022-10-10T12:45:29.740Z,98104.31
2022-10-10T12:48:05.556Z,98093.75
2022-10-10T12:50:37.448Z,98101.09
2022-10-10T12:53:18.916Z,98113.75
2022-10-10T12:55:48.184Z,98105.47
2022-10-10T12:58:29.294Z,98102.44
2022-10-10T13:00:59.452Z,98098.88
2022-10-10T13:03:35.609Z,98097.53
2022-10-10T13:06:08.637Z,98112.34
2022-10-10T13:08:37.563Z,98103.34
2022-10-10T13:11:14.195Z,98097.28
2022-10-10T13:13:51.746Z,98088.88
2022-10-10T13:16:22.280Z,98103.72
2022-10-10T13:18:50.238Z,98111.50
2022-10-10T13:21:26.717Z,98115.44
2022-10-10T13:24:03.699Z,98122.56
2022-10-10T13:26:49.271Z,98110.97
2022-10-10T13:29:41.975Z,98103.41
2022-10-10T13:32:32.625Z,98101.59
2022-10-10T13:35:02.460Z,98108.56
2022-10-10T13:37:29.608Z,98085.28
2022-10-10T13:39:58.527Z,98080.38
2022-10-10T13:42:39.148Z,98083.50
2022-10-10T13:45:34.735Z,98087.97
2022-10-10T13:48:01.292Z,98074.78
2022-10-10T13:50:30.635Z,98065.03
2022-10-10T13:53:29.037Z,98071.88
2022-10-10T13:56:30.920Z,98076.19
2022-10-10T13:59:06.537Z,98073.38
2022-10-10T14:01:46.469Z,98069.63
2022-10-10T14:04:17.325Z,98078.38
2022-10-10T14:07:01.516Z,98072.16
2022-10-10T14:09:41.696Z,98059.31
2022-10-10T14:12:24.607Z,98056.41
2022-10-10T14:14:53.085Z,98062.31
2022-10-10T14:17:20.304Z,98067.06
2022-10-10T14:19:48.422Z,98061.78
2022-10-10T14:22:15.507Z,98056.44
2022-10-10T14:24:42.208Z,98048.25
2022-10-10T14:27:16.267Z,98060.16
2022-10-10T14:29:43.325Z,98053.63
2022-10-10T14:32:11.475Z,98054.44
2022-10-10T14:34:38.103Z,98055.78
2022-10-10T14:37:04.948Z,98038.66
2022-10-10T14:39:31.915Z,98037.34
2022-10-10T14:42:02.131Z,98041.94
2022-10-10T14:44:28.743Z,98033.16
2022-10-10T14:46:57.579Z,98038.44
2022-10-10T14:49:24.116Z,98035.63
2022-10-10T14:51:50.777Z,98034.66
2022-10-10T14:54:17.455Z,98031.75
2022-10-10T14:57:08.362Z,98045.69
2022-10-10T14:59:47.955Z,98042.03
2022-10-10T15:02:21.107Z,98034.47
2022-10-10T15:04:49.914Z,98041.53
2022-10-10T15:07:17.197Z,98032.34
2022-10-10T15:10:03.996Z,98028.19
2022-10-10T15:12:35.547Z,98023.94
2022-10-10T15:15:02.310Z,98012.84
2022-10-10T15:17:30.589Z,98026.19
2022-10-10T15:19:57.196Z,98015.69
2022-10-10T15:22:23.954Z,98014.41
2022-10-10T15:24:50.629Z,98012.84
2022-10-10T15:27:17.500Z,98007.09
2022-10-10T15:29:44.049Z,98006.97
2022-10-10T15:32:10.659Z,98013.56
2022-10-10T15:34:37.408Z,98007.81
2022-10-10T15:37:04.048Z,98009.25
2022-10-10T15:39:31.406Z,98012.84
2022-10-10T15:41:58.070Z,98002.63
2022-10-10T15:44:26.993Z,98006.81
2022-10-10T15:46:53.565Z,98010.31
2022-10-10T15:49:20.153Z,98006.88
2022-10-10T15:51:47.535Z,98012.53
2022-10-10T15:54:14.604Z,98013.13
2022-10-10T15:56:41.816Z,98007.66
2022-10-10T15:59:09.482Z,97993.31
2022-10-10T16:01:37.004Z,97995.47
2022-10-10T16:04:04.739Z,97997.69
2022-10-10T16:06:33.243Z,97981.78
2022-10-10T16:09:23.653Z,97975.38
2022-10-10T16:11:48.782Z,97970.50
2022-10-10T16:14:15.423Z,97997.00
2022-10-10T16:16:42.014Z,97985.03
2022-10-10T16:19:08.578Z,97986.00
2022-10-10T16:21:35.603Z,97983.44
2022-10-10T16:24:02.286Z,97970.66
2022-10-10T16:26:33.052Z,97970.59
2022-10-10T16:29:01.384Z,97962.03
2022-10-10T16:31:28.685Z,97940.84
2022-10-10T16:33:57.697Z,97934.09
2022-10-10T16:36:26.907Z,97934.69
2022-10-10T16:38:54.965Z,97916.78
2022-10-10T16:41:46.039Z,97880.16
2022-10-10T16:44:10.677Z,97881.50
2022-10-10T16:46:37.288Z,97842.19
2022-10-10T16:49:04.783Z,97827.91
2022-10-10T16:51:31.599Z,97839.00
2022-10-10T16:54:02.384Z,97799.63
2022-10-10T16:56:32.208Z,97767.03
2022-10-10T16:58:59.772Z,97779.25
2022-10-10T17:01:27.200Z,97783.25
2022-10-10T17:03:54.327Z,97761.03
2022-10-10T17:06:24.771Z,97737.81
2022-10-10T17:08:54.764Z,97741.88
2022-10-10T17:11:22.776Z,97741.19
2022-10-10T17:13:50.604Z,97712.22
2022-10-10T17:19:09.539Z,97698.31
2022-10-10T17:21:36.143Z,97685.00
2022-10-10T17:24:02.904Z,97684.75
2022-10-10T17:26:29.700Z,97680.25
2022-10-10T17:28:58.064Z,97661.50
2022-10-10T17:31:25.783Z,97660.13
2022-10-10T17:33:54.289Z,97642.78
2022-10-10T17:36:28.111Z,97633.41
2022-10-10T17:39:00.350Z,97626.97
2022-10-10T17:41:27.636Z,97625.66
2022-10-10T17:43:54.980Z,97618.59
2022-10-10T17:46:35.429Z,97610.97
2022-10-10T17:49:05.520Z,97608.84
2022-10-10T17:51:32.849Z,97591.97
2022-10-10T17:54:00.845Z,97593.69
2022-10-10T17:56:28.112Z,97587.31
2022-10-10T17:58:55.039Z,97566.09
2022-10-10T18:01:22.275Z,97552.34
2022-10-10T18:03:49.168Z,97563.59
2022-10-10T18:06:20.792Z,97545.84
2022-10-10T18:08:51.580Z,97546.06
2022-10-10T18:11:21.256Z,97551.84
2022-10-10T18:13:48.149Z,97533.84
2022-10-10T18:16:20.091Z,97537.97
2022-10-10T18:18:51.357Z,97549.06
2022-10-10T18:21:20.503Z,97538.50
2022-10-10T18:23:47.573Z,97540.19
2022-10-10T18:26:17.435Z,97543.41
2022-10-10T18:28:44.402Z,97534.19
2022-10-10T18:31:14.286Z,97524.72
2022-10-10T18:33:42.274Z,97514.63
2022-10-10T18:36:09.627Z,97519.44
2022-10-10T18:38:36.298Z,97528.66
2022-10-10T18:41:17.762Z,97523.00
2022-10-10T18:43:45.046Z,97513.78
2022-10-10T18:46:14.505Z,97502.63
2022-10-10T18:48:42.037Z,97500.13
2022-10-10T18:51:12.600Z,97502.97
2022-10-10T18:53:41.604Z,97501.84
2022-10-10T18:56:09.369Z,97484.88
2022-10-10T18:58:37.475Z,97490.31
2022-10-10T19:01:08.104Z,97486.91
2022-10-10T19:03:36.663Z,97481.03
2022-10-10T19:06:05.576Z,97486.66
2022-10-10T19:08:33.597Z,97499.81
2022-10-10T19:11:00.892Z,97494.78
2022-10-10T19:13:28.340Z,97483.69
2022-10-10T19:15:55.208Z,97479.13
2022-10-10T19:18:22.981Z,97463.50
2022-10-10T19:20:49.784Z,97476.47
2022-10-10T19:23:16.487Z,97460.50
2022-10-10T19:25:46.132Z,97440.78
2022-10-10T19:28:12.876Z,97447.91
2022-10-10T19:30:41.176Z,97445.25
2022-10-10T19:33:08.075Z,97430.25
2022-10-10T19:35:39.690Z,97426.66
2022-10-10T19:38:07.827Z,97414.00
2022-10-10T19:40:34.771Z,97396.47
2022-10-10T19:43:02.096Z,97401.78
2022-10-10T19:45:28.705Z,97389.13
2022-10-10T19:47:55.361Z,97386.31
2022-10-10T19:50:21.976Z,97385.34
2022-10-10T19:52:48.528Z,97369.72
2022-10-10T19:55:18.391Z,97375.47
2022-10-10T19:57:44.937Z,97365.81
2022-10-10T20:00:12.196Z,97338.66
2022-10-10T20:02:38.782Z,97336.88
2022-10-10T20:05:06.405Z,97319.09
2022-10-10T20:07:33.700Z,97295.78
2022-10-10T20:10:00.322Z,97283.59
2022-10-10T20:12:26.963Z,97271.78
2022-10-10T20:14:55.565Z,97260.91
2022-10-10T20:17:22.747Z,97260.31
2022-10-10T20:19:49.365Z,97236.78
2022-10-10T20:22:16.040Z,97225.69
2022-10-10T20:24:42.625Z,97226.97
2022-10-10T20:27:11.489Z,97241.44
2022-10-10T20:29:38.479Z,97243.09
2022-10-10T20:32:05.360Z,97250.50
2022-10-10T20:34:31.935Z,97249.03
2022-10-10T20:36:59.373Z,97246.72
2022-10-10T20:39:26.169Z,97242.84
2022-10-10T20:41:52.892Z,97245.63
2022-10-10T20:44:19.515Z,97246.84
2022-10-10T20:46:46.495Z,97243.75
2022-10-10T20:49:19.368Z,97240.66
2022-10-10T20:51:49.705Z,97246.94
2022-10-10T20:54:18.810Z,97247.34
2022-10-10T20:56:46.252Z,97246.25
2022-10-10T20:59:13.336Z,97252.88
2022-10-10T21:01:40.022Z,97249.44
2022-10-10T21:04:11.161Z,97254.88
2022-10-10T21:06:39.251Z,97248.66
2022-10-10T21:09:08.713Z,97247.88
2022-10-10T21:11:37.749Z,97248.69
2022-10-10T21:14:04.393Z,97243.25
2022-10-10T21:16:34.522Z,97240.13
2022-10-10T21:19:01.613Z,97235.47
2022-10-10T21:21:31.000Z,97234.69
2022-10-10T21:23:57.975Z,97234.69
2022-10-10T21:26:26.920Z,97232.81
2022-10-10T21:28:54.481Z,97236.31
2022-10-10T21:31:26.881Z,97245.63
2022-10-10T21:33:54.348Z,97241.75
2022-10-10T21:36:23.143Z,97232.47
2022-10-10T21:38:49.741Z,97235.97
2022-10-10T21:41:19.417Z,97233.66
2022-10-10T21:43:48.122Z,97235.56
2022-10-10T21:46:24.111Z,97230.94
2022-10-10T21:48:52.474Z,97233.66
2022-10-10T21:51:19.777Z,97223.19
2022-10-10T21:53:46.567Z,97224.03
2022-10-10T21:56:14.242Z,97234.91
2022-10-10T21:58:42.603Z,97220.88
2022-10-10T22:01:18.105Z,97215.44
2022-10-10T22:03:46.392Z,97205.31
2022-10-10T22:06:16.591Z,97209.97
2022-10-10T22:08:43.964Z,97202.59
2022-10-10T22:11:13.579Z,97205.31
2022-10-10T22:13:42.160Z,97205.72
2022-10-10T22:16:09.402Z,97203.00
2022-10-10T22:18:36.666Z,97211.59
2022-10-10T22:21:05.443Z,97203.84
2022-10-10T22:23:32.236Z,97195.28
2022-10-10T22:25:58.933Z,97182.09
2022-10-10T22:28:26.004Z,97179.38
2022-10-10T22:30:52.648Z,97165.81
2022-10-10T22:33:19.215Z,97162.75
2022-10-10T22:35:45.836Z,97161.97
2022-10-10T22:38:12.479Z,97151.84
2022-10-10T22:40:40.984Z,97149.50
2022-10-10T22:43:07.613Z,97135.50
2022-10-10T22:45:34.386Z,97125.38
2022-10-10T22:48:02.903Z,97115.28
2022-10-10T22:50:30.245Z,97109.84
2022-10-10T22:52:56.932Z,97096.66
2022-10-10T22:55:23.611Z,97090.41
2022-10-10T22:57:50.412Z,97085.84
2022-10-10T23:00:18.088Z,97028.53
2022-10-10T23:02:44.852Z,97022.94
2022-10-10T23:05:12.928Z,97016.44
2022-10-10T23:07:39.517Z,97014.13
2022-10-10T23:10:06.723Z,97007.94
2022-10-10T23:12:33.349Z,96995.56
2022-10-10T23:15:00.138Z,96992.88
2022-10-10T23:17:26.879Z,96983.19
2022-10-10T23:19:53.467Z,96971.53
2022-10-10T23:22:20.088Z,96950.94
2022-10-10T23:24:47.093Z,96951.38
2022-10-10T23:27:13.761Z,96931.97
2022-10-10T23:29:40.357Z,96931.56
2022-10-10T23:32:07.064Z,96922.63
2022-10-10T23:34:33.717Z,96917.16
2022-10-10T23:37:00.335Z,96904.69
2022-10-10T23:39:26.896Z,96883.78
2022-10-10T23:41:53.525Z,96878.34
2022-10-10T23:44:20.256Z,96862.03
2022-10-10T23:46:46.900Z,96848.44
2022-10-10T23:49:13.486Z,96837.16
2022-10-10T23:51:40.086Z,96819.25
2022-10-10T23:54:06.760Z,96804.06
2022-10-10T23:56:33.323Z,96711.00
2022-10-10T23:58:59.992Z,96611.69
